Time;durP1;ratioP1;P1;durP2;ratioP2;P2;SDS_P1;SDS_P2;PMS_P1;PMS_P2;Temp;Humidity;BMP_temperature;BMP_pressure;BME280_temperature;BME280_humidity;BME280_pressure;Samples;Min_cycle;Max_cycle;Signal;HPM_P1;HPM_P2
2022/11/21 00:01:16;;;;;;;0.60;0.30;;;6.90;99.90;;;;;;6137872;23;20505;-80
2022/11/21 00:03:44;;;;;;;0.50;0.17;;;7.00;99.90;;;;;;6134464;23;20472;-81
2022/11/21 00:06:12;;;;;;;1.37;0.80;;;7.00;99.90;;;;;;6132183;23;20418;-80
2022/11/21 00:08:40;;;;;;;0.50;0.20;;;7.00;99.90;;;;;;6134116;23;20425;-81
2022/11/21 00:11:08;;;;;;;0.50;0.20;;;7.00;99.90;;;;;;6136309;23;20406;-80
2022/11/21 00:13:36;;;;;;;0.97;0.47;;;7.00;99.90;;;;;;6136466;23;20430;-79
2022/11/21 00:16:06;;;;;;;1.37;0.30;;;7.00;99.90;;;;;;6143335;23;20398;-78
2022/11/21 00:18:35;;;;;;;1.07;0.83;;;7.00;99.90;;;;;;6150405;23;20918;-76
2022/11/21 00:21:05;;;;;;;0.50;0.20;;;7.00;99.90;;;;;;6153314;23;20485;-76
2022/11/21 00:23:33;;;;;;;0.50;0.20;;;7.00;99.90;;;;;;6153057;23;20452;-76
2022/11/21 00:26:05;;;;;;;0.50;0.20;;;7.00;99.90;;;;;;6153470;23;20398;-76
2022/11/21 00:28:33;;;;;;;0.50;0.10;;;7.00;99.90;;;;;;6144132;23;20417;-78
2022/11/21 00:31:01;;;;;;;11.73;3.43;;;7.00;99.90;;;;;;6140629;23;20442;-81
2022/11/21 00:33:29;;;;;;;1.13;0.40;;;7.00;99.90;;;;;;6141927;23;20441;-79
2022/11/21 00:35:58;;;;;;;0.50;0.10;;;7.10;99.90;;;;;;6150809;23;20398;-81
2022/11/21 00:38:27;;;;;;;0.50;0.10;;;7.00;99.90;;;;;;6137290;23;20436;-81
2022/11/21 00:40:55;;;;;;;0.50;0.17;;;7.00;99.90;;;;;;6143786;23;20470;-78
2022/11/21 00:43:23;;;;;;;0.80;0.50;;;7.00;99.90;;;;;;6148356;23;20414;-78
2022/11/21 00:45:51;;;;;;;0.50;0.10;;;7.00;99.90;;;;;;6144767;23;20414;-79
2022/11/21 00:48:19;;;;;;;3.63;1.27;;;7.00;99.90;;;;;;6148094;23;20398;-77
2022/11/21 00:50:49;;;;;;;0.77;0.40;;;7.00;99.90;;;;;;6149043;23;20446;-82
2022/11/21 00:53:18;;;;;;;0.67;0.30;;;7.00;99.90;;;;;;6144312;23;20436;-79
2022/11/21 00:55:46;;;;;;;0.50;0.10;;;7.00;99.90;;;;;;6149540;23;20470;-80
2022/11/21 00:58:14;;;;;;;0.70;0.37;;;6.90;99.90;;;;;;6146775;23;20981;-80
2022/11/21 05:01:20;;;;;;;0.50;0.10;;;7.50;99.90;;;;;;6078202;23;20803;-81
2022/11/21 05:03:49;;;;;;;0.50;0.20;;;7.50;99.90;;;;;;6105773;23;20410;-80
2022/11/21 05:06:17;;;;;;;0.50;0.17;;;7.50;99.90;;;;;;6105935;23;20414;-79
2022/11/21 05:08:45;;;;;;;0.50;0.20;;;7.60;99.90;;;;;;6103962;23;20395;-81
2022/11/21 05:14:05;;;;;;;0.50;0.20;;;;;;;;;;6126899;23;20467;-71
2022/11/21 05:16:34;;;;;;;1.47;0.20;;;7.50;99.90;;;;;;6183850;23;20404;-71
2022/11/21 05:19:02;;;;;;;0.83;0.63;;;7.50;99.90;;;;;;6184415;23;20400;-71
2022/11/21 05:21:30;;;;;;;0.70;0.50;;;7.50;99.90;;;;;;6184924;23;20458;-71
2022/11/21 05:23:58;;;;;;;6.30;0.70;;;7.50;99.90;;;;;;6184104;23;20805;-71
2022/11/21 05:26:25;;;;;;;0.50;0.17;;;7.40;99.90;;;;;;6184760;23;20404;-70
2022/11/21 05:28:53;;;;;;;1.00;0.20;;;7.40;99.90;;;;;;6184718;23;20451;-73
2022/11/21 05:31:21;;;;;;;0.80;0.40;;;7.40;99.90;;;;;;6184736;23;20447;-72
2022/11/21 05:33:50;;;;;;;0.50;0.10;;;7.40;99.90;;;;;;6184139;23;20430;-73
2022/11/21 05:36:18;;;;;;;2.13;1.77;;;7.40;99.90;;;;;;6185079;23;20411;-70
2022/11/21 05:38:45;;;;;;;0.60;0.30;;;7.40;99.90;;;;;;6186423;23;20629;-71
2022/11/21 05:41:13;;;;;;;0.50;0.10;;;7.40;99.90;;;;;;6184772;23;20904;-72
2022/11/21 05:43:46;;;;;;;0.60;0.20;;;7.30;99.90;;;;;;6184647;23;20478;-71
2022/11/21 05:46:15;;;;;;;0.60;0.40;;;7.30;99.90;;;;;;6184927;23;20404;-72
2022/11/21 05:48:43;;;;;;;0.70;0.20;;;7.30;99.90;;;;;;6184316;23;20404;-72
2022/11/21 05:51:12;;;;;;;0.50;0.20;;;7.30;99.90;;;;;;6184522;23;21001;-71
2022/11/21 05:53:40;;;;;;;0.60;0.33;;;7.20;99.90;;;;;;6183866;23;20491;-71
2022/11/21 05:56:10;;;;;;;0.50;0.20;;;7.20;99.90;;;;;;6184902;23;20406;-73
2022/11/21 05:58:38;;;;;;;4.83;0.40;;;7.30;99.90;;;;;;6184699;23;20419;-73
2022/11/21 06:01:07;;;;;;;0.50;0.10;;;7.20;99.90;;;;;;6184558;23;20400;-72
2022/11/21 06:03:36;;;;;;;0.50;0.10;;;7.20;99.90;;;;;;6183874;23;20459;-72
2022/11/21 06:06:06;;;;;;;0.50;0.20;;;7.20;99.90;;;;;;6184453;23;20462;-72
2022/11/21 06:08:36;;;;;;;0.50;0.10;;;7.20;99.90;;;;;;6184901;23;20812;-73
2022/11/21 06:11:06;;;;;;;0.60;0.30;;;7.20;99.90;;;;;;6184522;23;20494;-72
2022/11/21 06:13:34;;;;;;;0.50;0.10;;;7.20;99.90;;;;;;6183643;23;20424;-71
2022/11/21 06:16:04;;;;;;;0.50;0.20;;;7.20;99.90;;;;;;6184976;23;20408;-71
2022/11/21 06:18:34;;;;;;;0.60;0.30;;;7.10;99.90;;;;;;6184792;23;20412;-72
2022/11/21 06:21:03;;;;;;;2.20;1.60;;;7.10;99.90;;;;;;6185159;23;20408;-73
2022/11/21 06:23:32;;;;;;;0.50;0.10;;;7.00;99.90;;;;;;6184471;23;20404;-71
2022/11/21 06:26:03;;;;;;;0.50;0.20;;;7.00;99.90;;;;;;6184333;23;20908;-71
2022/11/21 06:28:33;;;;;;;0.70;0.23;;;7.00;99.90;;;;;;6183921;23;20450;-72
2022/11/21 06:31:04;;;;;;;0.50;0.10;;;7.00;99.90;;;;;;6183967;23;21019;-72
2022/11/21 06:33:33;;;;;;;0.50;0.20;;;7.00;99.90;;;;;;6183934;23;20479;-72
2022/11/21 06:36:02;;;;;;;0.50;0.10;;;7.00;99.90;;;;;;6183575;23;20451;-73
2022/11/21 06:38:31;;;;;;;0.50;0.23;;;7.00;99.90;;;;;;6183919;23;20516;-73
2022/11/21 06:40:59;;;;;;;0.50;0.20;;;7.00;99.90;;;;;;6182629;23;20400;-71
2022/11/21 06:43:28;;;;;;;5.60;0.60;;;7.00;99.90;;;;;;6182589;23;20404;-72
2022/11/21 06:45:57;;;;;;;0.70;0.40;;;7.00;99.90;;;;;;6183405;23;20462;-71
2022/11/21 06:48:25;;;;;;;0.50;0.10;;;7.00;99.90;;;;;;6183458;23;20419;-72
2022/11/21 06:50:53;;;;;;;0.50;0.20;;;7.00;99.90;;;;;;6182693;23;20483;-72
2022/11/21 06:53:21;;;;;;;0.50;0.10;;;7.00;99.90;;;;;;6182005;23;20462;-73
2022/11/21 06:55:49;;;;;;;0.50;0.13;;;;;;;;;;6183170;23;20458;-71
2022/11/21 06:58:17;;;;;;;0.50;0.10;;;7.00;99.90;;;;;;6181154;23;20462;-71
2022/11/21 07:00:47;;;;;;;0.50;0.10;;;7.00;99.90;;;;;;6186121;23;20454;-71
2022/11/21 07:03:15;;;;;;;0.63;0.47;;;7.00;99.90;;;;;;6183345;23;20883;-72
2022/11/21 07:05:43;;;;;;;0.50;0.10;;;7.00;99.90;;;;;;6185688;23;20458;-72
2022/11/21 07:08:11;;;;;;;0.50;0.10;;;7.00;99.90;;;;;;6184105;23;20396;-71
2022/11/21 07:10:42;;;;;;;0.50;0.10;;;;;;;;;;6185881;23;20436;-73
2022/11/21 07:13:31;;;;;;;1.10;0.83;;;7.10;99.90;;;;;;6184200;23;20396;-72
2022/11/21 07:16:03;;;;;;;0.60;0.60;;;7.10;99.90;;;;;;6184984;23;20700;-71
2022/11/21 07:18:31;;;;;;;0.50;0.30;;;7.10;99.90;;;;;;6183696;23;20930;-71
2022/11/21 07:21:00;;;;;;;0.50;0.10;;;7.00;99.90;;;;;;6185513;23;20400;-72
2022/11/21 07:23:29;;;;;;;0.50;0.10;;;7.20;99.90;;;;;;6184912;23;20415;-72
2022/11/21 07:25:59;;;;;;;0.50;0.10;;;7.20;99.90;;;;;;6185533;23;20400;-73
2022/11/21 07:28:28;;;;;;;0.50;0.10;;;7.30;99.90;;;;;;6185134;23;20471;-72
2022/11/21 07:30:56;;;;;;;0.50;0.10;;;7.30;99.90;;;;;;6185366;23;20435;-72
2022/11/21 07:33:25;;;;;;;0.50;0.10;;;7.30;99.90;;;;;;6184754;23;20784;-71
2022/11/21 07:35:55;;;;;;;0.50;0.30;;;7.30;99.90;;;;;;6185389;23;20407;-73
2022/11/21 07:38:23;;;;;;;0.57;0.27;;;7.30;99.90;;;;;;6185372;23;20462;-73
2022/11/21 07:40:52;;;;;;;0.50;0.10;;;7.30;99.90;;;;;;6185538;23;20399;-72
2022/11/21 07:43:20;;;;;;;0.50;0.10;;;7.30;99.90;;;;;;6185449;23;20404;-73
2022/11/21 07:45:47;;;;;;;1.70;1.60;;;7.30;99.90;;;;;;6186449;23;20787;-71
2022/11/21 07:48:15;;;;;;;3.37;2.83;;;7.40;99.90;;;;;;6186815;23;20412;-73
2022/11/21 07:50:46;;;;;;;0.50;0.10;;;7.40;99.90;;;;;;6184866;23;20396;-72
2022/11/21 07:53:14;;;;;;;0.60;0.30;;;7.30;99.90;;;;;;6184536;23;20407;-71
2022/11/21 07:55:42;;;;;;;0.50;0.10;;;7.30;99.90;;;;;;6185218;23;20400;-72
2022/11/21 07:58:12;;;;;;;0.50;0.10;;;7.30;99.90;;;;;;6184482;23;20408;-71
2022/11/21 08:00:42;;;;;;;0.50;0.10;;;7.40;99.90;;;;;;6184674;23;20462;-72
2022/11/21 08:03:11;;;;;;;0.50;0.20;;;7.40;99.90;;;;;;6184527;23;20701;-72
2022/11/21 08:05:40;;;;;;;0.60;0.30;;;7.30;99.90;;;;;;6184994;23;20427;-72
2022/11/21 08:08:10;;;;;;;1.80;1.70;;;7.40;99.90;;;;;;6184780;23;20500;-73
2022/11/21 08:10:40;;;;;;;0.50;0.20;;;7.50;99.90;;;;;;6183997;23;20392;-73
2022/11/21 08:13:08;;;;;;;0.73;0.73;;;7.50;99.90;;;;;;6184197;23;20530;-73
2022/11/21 08:15:36;;;;;;;0.50;0.10;;;7.70;99.90;;;;;;6184462;23;20435;-72
2022/11/21 08:18:08;;;;;;;0.50;0.10;;;7.50;99.90;;;;;;6184151;23;20474;-73
2022/11/21 08:20:35;;;;;;;0.50;0.10;;;7.50;99.90;;;;;;6184072;23;20408;-72
2022/11/21 08:23:04;;;;;;;0.50;0.10;;;7.50;99.90;;;;;;6183047;23;20404;-72
2022/11/21 08:25:36;;;;;;;0.50;0.10;;;7.60;99.90;;;;;;6183556;23;20424;-77
2022/11/21 08:28:04;;;;;;;0.50;0.10;;;7.60;99.90;;;;;;6184785;23;20562;-72
2022/11/21 08:30:32;;;;;;;0.50;0.10;;;7.70;99.90;;;;;;6184696;23;20404;-74
2022/11/21 08:33:01;;;;;;;0.50;0.10;;;7.70;99.90;;;;;;6184033;23;20959;-73
2022/11/21 08:35:29;;;;;;;0.50;0.10;;;7.80;99.90;;;;;;6184737;23;20494;-72
2022/11/21 08:37:57;;;;;;;0.50;0.10;;;7.80;99.90;;;;;;6184921;23;20400;-71
2022/11/21 08:40:26;;;;;;;1.23;0.73;;;7.80;99.90;;;;;;6184499;23;20415;-71
2022/11/21 08:42:58;;;;;;;0.60;0.43;;;7.70;99.90;;;;;;6184747;23;20404;-73
2022/11/21 08:45:26;;;;;;;0.60;0.50;;;7.60;99.90;;;;;;6185164;23;20432;-72
2022/11/21 08:47:54;;;;;;;0.50;0.10;;;7.50;99.90;;;;;;6184466;23;20959;-73
2022/11/21 08:50:22;;;;;;;0.50;0.30;;;7.60;99.90;;;;;;6184787;23;20463;-73
2022/11/21 08:52:50;;;;;;;0.90;0.30;;;7.10;99.90;;;;;;6184092;23;20440;-72
2022/11/21 08:55:18;;;;;;;1.07;0.33;;;7.70;99.90;;;;;;6184239;23;20788;-70
2022/11/21 08:57:46;;;;;;;0.80;0.27;;;7.80;99.90;;;;;;6184517;23;20429;-72
2022/11/21 09:00:16;;;;;;;0.50;0.20;;;9.50;99.90;;;;;;6184577;23;20404;-73
2022/11/21 09:02:44;;;;;;;1.80;1.17;;;7.70;99.90;;;;;;6183776;23;20404;-72
2022/11/21 09:05:12;;;;;;;0.50;0.20;;;7.70;99.90;;;;;;6184719;23;20455;-70
2022/11/21 09:07:40;;;;;;;0.50;0.10;;;7.80;99.90;;;;;;6185006;23;20389;-70
2022/11/21 09:10:09;;;;;;;0.50;0.20;;;7.80;99.90;;;;;;6184722;23;20769;-70
2022/11/21 09:12:37;;;;;;;0.50;0.20;;;7.70;99.90;;;;;;6183720;23;20436;-71
2022/11/21 09:18:06;;;;;;;0.50;0.10;;;7.70;99.90;;;;;;6184714;23;20404;-70
2022/11/21 09:20:39;;;;;;;0.50;0.10;;;7.70;99.90;;;;;;6184696;23;20385;-71
2022/11/21 09:23:08;;;;;;;1.47;0.57;;;7.70;99.90;;;;;;6184404;23;20407;-71
2022/11/21 09:25:36;;;;;;;0.50;0.20;;;7.60;99.90;;;;;;6184565;23;20431;-72
2022/11/21 09:28:05;;;;;;;0.50;0.10;;;7.70;99.90;;;;;;6185041;23;20435;-71
2022/11/21 09:30:33;;;;;;;0.50;0.10;;;7.70;99.90;;;;;;6184557;23;20435;-73
2022/11/21 09:33:04;;;;;;;1.37;0.77;;;7.70;99.90;;;;;;6184283;23;20518;-72
2022/11/21 09:35:32;;;;;;;0.90;0.60;;;7.70;99.90;;;;;;6184638;23;20808;-71
2022/11/21 09:38:00;;;;;;;0.50;0.20;;;7.70;99.90;;;;;;6184993;23;20975;-71
2022/11/21 09:40:30;;;;;;;1.93;1.13;;;7.80;99.90;;;;;;6185153;23;20426;-70
2022/11/21 09:43:10;;;;;;;0.50;0.10;;;7.90;99.90;;;;;;6184127;23;20455;-71
2022/11/21 09:45:42;;;;;;;0.50;0.20;;;7.80;99.90;;;;;;6184724;23;20404;-70
2022/11/21 09:48:14;;;;;;;0.60;0.40;;;7.80;99.90;;;;;;6185112;23;20816;-72
2022/11/21 09:50:44;;;;;;;11.33;2.10;;;7.90;99.90;;;;;;6184967;23;20404;-73
2022/11/21 09:53:23;;;;;;;0.60;0.40;;;8.00;99.90;;;;;;6184182;23;20508;-72
2022/11/21 09:55:55;;;;;;;0.50;0.10;;;8.00;99.90;;;;;;6184590;23;20832;-71
2022/11/21 09:58:28;;;;;;;0.50;0.10;;;8.00;99.90;;;;;;6184569;23;20400;-70
2022/11/21 10:00:56;;;;;;;0.50;0.27;;;8.00;99.90;;;;;;6184460;23;20450;-73
2022/11/21 10:03:30;;;;;;;0.50;0.10;;;8.30;99.90;;;;;;6183679;23;20436;-72
2022/11/21 10:06:03;;;;;;;0.50;0.20;;;8.20;99.90;;;;;;6183607;23;20504;-71
2022/11/21 10:08:41;;;;;;;0.50;0.20;;;8.20;99.90;;;;;;6183623;23;20427;-71
2022/11/21 10:11:18;;;;;;;0.50;0.20;;;8.20;99.90;;;;;;6183908;23;20406;-73
2022/11/21 10:14:01;;;;;;;1.13;1.03;;;8.30;99.90;;;;;;6183240;23;20471;-71
2022/11/21 10:16:42;;;;;;;0.60;0.30;;;8.30;99.90;;;;;;6183611;23;20408;-71
2022/11/21 10:19:33;;;;;;;2.10;0.37;;;8.50;99.90;;;;;;6184188;23;20766;-70
2022/11/21 10:22:23;;;;;;;0.50;0.10;;;8.50;99.90;;;;;;6179776;23;20408;-71
2022/11/21 10:24:56;;;;;;;0.50;0.10;;;8.80;99.90;;;;;;6182098;23;20420;-72
2022/11/21 10:27:32;;;;;;;0.60;0.40;;;8.90;92.50;;;;;;6182567;23;20439;-71
2022/11/21 10:30:04;;;;;;;0.50;0.10;;;9.00;91.70;;;;;;6183799;23;20400;-72
2022/11/21 10:32:37;;;;;;;0.50;0.20;;;9.10;81.30;;;;;;6182988;23;21007;-72
2022/11/21 10:35:15;;;;;;;0.50;0.27;;;9.20;46.50;;;;;;6183446;23;20505;-70
2022/11/21 10:37:48;;;;;;;0.60;0.40;;;9.20;36.20;;;;;;6184614;23;20388;-71
2022/11/21 10:40:30;;;;;;;2.93;0.40;;;9.30;33.30;;;;;;6183828;23;20668;-72
2022/11/21 10:45:15;;;;;;;0.50;0.10;;;9.20;23.10;;;;;;6183551;23;20447;-71
2022/11/21 10:45:50;;;;;;;1.13;1.03;;;;;;;;;;6183923;23;20404;-73
2022/11/21 10:48:18;;;;;;;0.50;0.10;;;9.40;19.50;;;;;;6183746;23;20407;-71
2022/11/21 10:51:03;;;;;;;0.57;0.30;;;10.10;13.60;;;;;;6183863;23;20408;-71
2022/11/21 10:56:20;;;;;;;0.50;0.10;;;9.20;1.10;;;;;;6183594;23;20801;-72
2022/11/21 10:58:51;;;;;;;2.50;0.83;;;9.10;1.70;;;;;;6183930;23;20458;-73
2022/11/21 11:01:21;;;;;;;0.60;0.20;;;9.10;1.00;;;;;;6183862;23;20790;-73
2022/11/21 11:04:15;;;;;;;0.60;0.40;;;9.00;1.00;;;;;;6183091;23;20948;-72
2022/11/21 11:07:22;;;;;;;0.50;0.20;;;9.10;4.00;;;;;;6183602;23;20451;-72
2022/11/21 11:09:51;;;;;;;1.43;0.60;;;;;;;;;;6184038;23;20416;-70
2022/11/21 11:15:20;;;;;;;0.50;0.10;;;9.40;2.60;;;;;;6182629;23;20506;-73
2022/11/21 11:17:54;;;;;;;0.50;0.10;;;9.40;7.20;;;;;;6184429;23;20426;-71
2022/11/21 11:20:32;;;;;;;0.50;0.10;;;9.60;2.30;;;;;;6184322;23;20872;-72
2022/11/21 11:23:15;;;;;;;1.50;0.73;;;9.60;1.00;;;;;;6184213;23;20486;-72
2022/11/21 11:25:47;;;;;;;0.50;0.10;;;9.60;1.00;;;;;;6184023;23;20388;-72
2022/11/21 11:28:18;;;;;;;0.50;0.10;;;;;;;;;;6179233;23;20412;-78
2022/11/21 11:30:47;;;;;;;0.97;0.30;;;9.60;1.00;;;;;;6096385;23;20407;-77
2022/11/21 11:33:36;;;;;;;0.50;0.17;;;9.60;1.00;;;;;;6099261;23;20438;-77
2022/11/21 11:36:15;;;;;;;0.97;0.70;;;9.60;1.00;;;;;;6098772;23;20422;-76
2022/11/21 11:38:48;;;;;;;0.50;0.10;;;9.40;1.00;;;;;;6099668;23;20442;-77
2022/11/21 11:47:29;;;;;;;0.50;0.10;;;9.30;1.00;;;;;;6100061;23;20418;-77
2022/11/21 11:47:31;;;;;;;0.50;0.10;;;9.20;1.00;;;;;;6099972;23;20414;-79
2022/11/21 11:50:12;;;;;;;0.50;0.10;;;9.20;1.00;;;;;;6099141;23;20433;-77
2022/11/21 11:52:50;;;;;;;0.50;0.10;;;9.30;1.00;;;;;;6099144;23;20406;-78
2022/11/21 11:55:26;;;;;;;1.07;0.97;;;9.30;1.00;;;;;;6098568;23;20485;-77
2022/11/21 11:57:59;;;;;;;0.50;0.10;;;9.40;1.00;;;;;;6098649;23;20406;-78
2022/11/21 12:00:35;;;;;;;0.60;0.40;;;9.30;1.00;;;;;;6100376;23;20427;-78
2022/11/21 12:03:11;;;;;;;0.50;0.10;;;9.20;1.00;;;;;;6105825;23;20417;-78
2022/11/21 12:05:50;;;;;;;0.70;0.43;;;9.20;1.00;;;;;;6107524;23;20478;-79
2022/11/21 12:08:24;;;;;;;0.50;0.20;;;9.20;1.00;;;;;;6106668;23;20403;-78
2022/11/21 12:15:47;;;;;;;0.50;0.10;;;9.20;1.00;;;;;;6107455;23;20443;-79
2022/11/21 12:17:09;;;;;;;0.50;0.10;;;9.20;1.00;;;;;;6103232;23;20970;-77
2022/11/21 12:19:39;;;;;;;6.53;1.07;;;9.30;1.00;;;;;;6100348;23;20534;-79
2022/11/21 12:22:10;;;;;;;0.50;0.10;;;9.30;1.00;;;;;;6097994;23;20964;-79
2022/11/21 12:24:38;;;;;;;0.50;0.10;;;9.20;1.00;;;;;;6096281;23;20927;-78
2022/11/21 12:27:21;;;;;;;0.57;0.20;;;9.20;1.00;;;;;;6101199;23;20383;-78
2022/11/21 12:30:02;;;;;;;0.50;0.10;;;9.10;1.00;;;;;;6099050;23;20434;-79
2022/11/21 12:32:49;;;;;;;0.50;0.10;;;9.00;1.00;;;;;;6098324;23;20395;-79
2022/11/21 12:35:34;;;;;;;0.50;0.10;;;9.10;1.00;;;;;;6101938;23;20927;-78
2022/11/21 12:38:14;;;;;;;0.60;0.40;;;9.40;1.00;;;;;;6105249;23;20394;-78
2022/11/21 12:40:54;;;;;;;0.50;0.10;;;9.30;1.00;;;;;;6107774;23;20525;-75
2022/11/21 12:43:33;;;;;;;0.50;0.13;;;9.50;1.00;;;;;;6108587;23;20892;-79
2022/11/21 12:46:10;;;;;;;0.50;0.10;;;9.60;1.00;;;;;;6109761;23;20407;-79
2022/11/21 12:55:00;;;;;;;0.50;0.10;;;10.10;1.00;;;;;;6098511;23;20550;-78
2022/11/21 12:57:43;;;;;;;0.50;0.10;;;10.10;1.00;;;;;;6098899;23;20491;-78
2022/11/21 13:00:20;;;;;;;0.57;0.10;;;10.20;1.00;;;;;;6098155;23;20779;-78
2022/11/21 13:03:16;;;;;;;0.70;0.47;;;10.20;1.00;;;;;;6097544;23;20438;-78
2022/11/21 13:05:49;;;;;;;0.50;0.20;;;10.00;1.00;;;;;;6098030;23;20798;-79
2022/11/21 13:08:54;;;;;;;0.60;0.20;;;;;;;;;;6092540;23;20974;-78
2022/11/21 13:12:01;;;;;;;0.50;0.10;;;;;;;;;;6104498;23;20486;-78
2022/11/21 13:14:55;;;;;;;;;;;;;;;;;;;;;
2022/11/21 13:20:49;;;;;;;0.50;0.10;;;9.90;1.00;;;;;;6102931;23;20749;-77
2022/11/21 13:23:36;;;;;;;0.50;0.10;;;9.80;1.00;;;;;;6097437;23;20486;-78
2022/11/21 13:26:42;;;;;;;0.50;0.10;;;10.10;1.00;;;;;;6099097;23;20387;-78
2022/11/21 13:29:11;;;;;;;0.50;0.10;;;10.20;1.00;;;;;;6099397;23;20445;-78
2022/11/21 13:31:40;;;;;;;0.50;0.10;;;10.20;1.00;;;;;;6098996;23;20423;-79
2022/11/21 13:34:37;;;;;;;0.50;0.20;;;10.30;1.00;;;;;;6100666;23;20443;-79
2022/11/21 13:37:05;;;;;;;0.57;0.17;;;10.30;1.00;;;;;;6099364;23;20403;-80
2022/11/21 13:39:38;;;;;;;0.50;0.10;;;10.20;1.00;;;;;;6097928;23;20431;-79
2022/11/21 13:45:33;;;;;;;0.50;0.10;;;10.10;1.00;;;;;;6099482;23;20403;-78
2022/11/21 13:48:17;;;;;;;0.50;0.10;;;9.80;1.00;;;;;;6098229;23;20398;-78
2022/11/21 13:51:16;;;;;;;0.50;0.10;;;9.80;1.00;;;;;;6097387;23;20438;-79
2022/11/21 13:54:23;;;;;;;0.50;0.20;;;9.70;1.00;;;;;;6097271;23;20524;-78
2022/11/21 13:57:12;;;;;;;0.50;0.20;;;9.80;1.00;;;;;;6099861;23;20413;-78
2022/11/21 13:59:56;;;;;;;0.50;0.10;;;9.70;1.00;;;;;;6099622;23;20419;-78
2022/11/21 14:02:53;;;;;;;0.50;0.10;;;9.80;1.00;;;;;;6097741;23;20395;-76
2022/11/21 14:05:54;;;;;;;0.50;0.10;;;9.70;1.00;;;;;;6098480;23;20402;-79
2022/11/21 14:08:26;;;;;;;0.50;0.10;;;9.70;1.00;;;;;;6092549;23;20407;-76
2022/11/21 14:10:56;;;;;;;0.50;0.10;;;9.70;1.00;;;;;;6095139;23;20493;-76
2022/11/21 14:13:29;;;;;;;0.50;0.10;;;9.60;1.00;;;;;;6095874;23;20406;-75
2022/11/21 14:16:17;;;;;;;0.50;0.10;;;9.70;1.00;;;;;;6097297;23;20771;-77
2022/11/21 14:18:46;;;;;;;0.50;0.10;;;9.70;1.00;;;;;;6096295;23;20427;-77
2022/11/21 14:21:21;;;;;;;0.50;0.10;;;9.70;1.00;;;;;;6098890;23;20411;-76
2022/11/21 14:23:50;;;;;;;0.50;0.10;;;9.80;1.00;;;;;;6096216;23;20414;-75
2022/11/21 14:26:20;;;;;;;0.50;0.10;;;9.90;1.00;;;;;;6095938;23;20417;-78
2022/11/21 14:28:48;;;;;;;0.50;0.10;;;10.10;1.00;;;;;;6095862;23;20445;-74
2022/11/21 14:31:16;;;;;;;0.50;0.10;;;10.10;1.00;;;;;;6096049;23;20566;-76
2022/11/21 14:33:46;;;;;;;0.50;0.10;;;10.20;1.00;;;;;;6104194;23;20407;-77
2022/11/21 14:36:15;;;;;;;0.50;0.10;;;11.00;1.00;;;;;;6098716;23;20999;-77
2022/11/21 14:38:45;;;;;;;0.50;0.10;;;10.30;1.00;;;;;;6096298;23;20809;-77
2022/11/21 14:41:29;;;;;;;0.50;0.10;;;10.30;1.00;;;;;;6096009;23;20764;-77
2022/11/21 14:44:06;;;;;;;0.50;0.10;;;10.20;1.00;;;;;;6096619;23;20481;-74
2022/11/21 14:46:36;;;;;;;0.50;0.10;;;10.20;1.00;;;;;;6096998;23;20391;-77
2022/11/21 14:49:22;;;;;;;0.50;0.10;;;10.20;1.00;;;;;;6096628;23;20430;-76
2022/11/21 14:51:53;;;;;;;0.50;0.10;;;10.20;1.00;;;;;;6096206;23;20394;-75
2022/11/21 14:54:24;;;;;;;0.60;0.10;;;10.20;1.00;;;;;;6097128;23;20465;-76
2022/11/21 14:56:59;;;;;;;0.50;0.10;;;10.10;1.00;;;;;;6097100;23;20414;-75
2022/11/21 14:59:30;;;;;;;0.50;0.10;;;10.10;1.00;;;;;;6095764;23;20957;-76
2022/11/21 15:02:02;;;;;;;0.50;0.10;;;10.00;1.00;;;;;;6095768;23;20410;-75
2022/11/21 15:04:33;;;;;;;0.50;0.10;;;10.00;1.00;;;;;;6097186;23;20414;-78
2022/11/21 15:07:01;;;;;;;0.50;0.10;;;10.00;1.00;;;;;;6099644;23;20414;-78
2022/11/21 15:09:30;;;;;;;0.50;0.10;;;10.00;1.00;;;;;;6097322;23;20438;-74
2022/11/21 15:12:28;;;;;;;0.50;0.10;;;10.00;1.00;;;;;;6095299;23;20439;-73
2022/11/21 15:15:00;;;;;;;0.50;0.10;;;9.90;1.00;;;;;;6095974;23;20449;-75
2022/11/21 15:17:29;;;;;;;0.50;0.10;;;9.90;1.00;;;;;;6096203;23;20490;-75
2022/11/21 15:20:16;;;;;;;0.50;0.10;;;9.90;1.00;;;;;;6096477;23;20427;-75
2022/11/21 15:22:44;;;;;;;0.50;0.10;;;9.90;1.00;;;;;;6096951;23;20950;-75
2022/11/21 15:25:17;;;;;;;0.50;0.10;;;9.80;1.00;;;;;;6097930;23;20414;-75
2022/11/21 15:27:47;;;;;;;0.50;0.10;;;;;;;;;;6098349;23;20391;-76
2022/11/21 15:30:24;;;;;;;0.50;0.10;;;9.70;1.00;;;;;;6100048;23;20457;-75
2022/11/21 15:33:06;;;;;;;0.50;0.10;;;9.60;1.00;;;;;;6101934;23;20413;-73
2022/11/21 15:35:49;;;;;;;0.50;0.10;;;9.50;1.00;;;;;;6098660;23;20463;-74
2022/11/21 15:38:20;;;;;;;0.50;0.20;;;9.40;1.00;;;;;;6101557;23;20411;-75
2022/11/21 15:41:02;;;;;;;0.50;0.10;;;9.40;1.00;;;;;;6101240;23;20436;-82
2022/11/21 15:43:40;;;;;;;0.50;0.10;;;9.30;1.00;;;;;;6096257;23;20796;-74
2022/11/21 15:46:15;;;;;;;0.50;0.10;;;9.30;1.00;;;;;;6096868;23;20485;-75
2022/11/21 15:48:45;;;;;;;0.50;0.10;;;9.20;1.00;;;;;;6097101;23;20448;-73
2022/11/21 15:51:14;;;;;;;0.50;0.10;;;9.20;1.00;;;;;;6097046;23;20383;-74
2022/11/21 15:53:51;;;;;;;0.50;0.10;;;;;;;;;;6100146;23;20400;-74
2022/11/21 15:56:35;;;;;;;1.17;1.17;;;9.00;1.00;;;;;;6097722;23;20505;-76
2022/11/21 15:59:05;;;;;;;0.50;0.10;;;9.00;1.00;;;;;;6103865;23;20422;-76
2022/11/21 16:01:33;;;;;;;0.50;0.10;;;8.90;1.00;;;;;;6098539;23;20489;-77
2022/11/21 16:04:02;;;;;;;0.50;0.10;;;8.90;1.00;;;;;;6098381;23;20798;-78
2022/11/21 16:06:31;;;;;;;0.50;0.10;;;8.90;1.00;;;;;;6097440;23;20478;-76
2022/11/21 16:08:58;;;;;;;0.70;0.30;;;8.80;1.00;;;;;;6099668;23;20459;-75
2022/11/21 16:11:28;;;;;;;0.50;0.10;;;8.80;1.00;;;;;;6101287;23;20407;-75
2022/11/21 16:13:58;;;;;;;0.50;0.10;;;8.70;1.00;;;;;;6098856;23;20465;-76
2022/11/21 16:16:29;;;;;;;0.50;0.10;;;8.70;1.00;;;;;;6098683;23;20437;-77
2022/11/21 16:18:57;;;;;;;0.50;0.10;;;8.60;1.00;;;;;;6097863;23;21014;-76
2022/11/21 16:21:25;;;;;;;0.50;0.10;;;8.60;1.00;;;;;;6098351;23;20899;-78
2022/11/21 16:23:54;;;;;;;0.50;0.10;;;8.50;1.00;;;;;;6097174;23;20478;-76
2022/11/21 16:26:26;;;;;;;0.50;0.10;;;8.50;1.00;;;;;;6098048;23;20433;-77
2022/11/21 16:28:55;;;;;;;0.50;0.20;;;8.40;1.00;;;;;;6098132;23;20514;-77
2022/11/21 16:31:24;;;;;;;0.50;0.13;;;8.40;1.00;;;;;;6098254;23;20789;-77
2022/11/21 16:33:54;;;;;;;0.50;0.10;;;8.40;1.00;;;;;;6098514;23;20407;-76
2022/11/21 16:36:25;;;;;;;0.50;0.10;;;8.40;1.00;;;;;;6097208;23;20447;-78
2022/11/21 16:38:53;;;;;;;0.50;0.10;;;8.30;1.00;;;;;;6098697;23;20434;-77
2022/11/21 16:41:23;;;;;;;0.50;0.10;;;8.30;1.00;;;;;;6100354;23;20880;-79
2022/11/21 16:43:52;;;;;;;0.60;0.37;;;8.20;1.00;;;;;;6099809;23;20462;-77
2022/11/21 16:46:21;;;;;;;0.50;0.20;;;8.10;1.00;;;;;;6102429;23;20399;-79
2022/11/21 16:48:57;;;;;;;2.30;0.77;;;8.00;1.00;;;;;;6107057;23;20482;-79
2022/11/21 16:51:25;;;;;;;0.50;0.20;;;8.00;1.00;;;;;;6105141;23;20383;-78
2022/11/21 16:53:53;;;;;;;0.50;0.10;;;7.90;1.00;;;;;;6101527;23;20411;-77
2022/11/21 16:56:21;;;;;;;0.50;0.10;;;7.90;1.00;;;;;;6100843;23;20442;-79
2022/11/21 16:58:48;;;;;;;0.50;0.10;;;7.80;1.00;;;;;;6102059;23;20442;-78
2022/11/21 17:01:18;;;;;;;0.50;0.20;;;7.80;1.00;;;;;;6100397;23;20407;-78
2022/11/21 17:03:48;;;;;;;10.97;10.20;;;7.80;1.00;;;;;;6100699;23;20407;-77
2022/11/21 17:06:19;;;;;;;0.50;0.10;;;7.80;1.00;;;;;;6094282;23;20402;-77
2022/11/21 17:08:47;;;;;;;0.60;0.40;;;7.80;1.00;;;;;;6097690;23;20431;-78
2022/11/21 17:11:17;;;;;;;0.50;0.10;;;7.80;1.00;;;;;;6098387;23;20417;-79
2022/11/21 17:13:46;;;;;;;0.50;0.10;;;7.70;1.00;;;;;;6097852;23;20406;-78
2022/11/21 17:16:16;;;;;;;0.50;0.10;;;7.70;1.90;;;;;;6100022;23;20990;-79
2022/11/21 17:18:45;;;;;;;0.50;0.10;;;7.80;1.00;;;;;;6098533;23;20513;-77
2022/11/21 17:21:15;;;;;;;0.50;0.10;;;7.80;3.90;;;;;;6096482;23;20411;-79
2022/11/21 17:23:45;;;;;;;0.50;0.10;;;7.80;3.30;;;;;;6100753;23;20397;-78
2022/11/21 17:26:17;;;;;;;0.50;0.10;;;7.80;3.30;;;;;;6104291;23;20932;-77
2022/11/21 17:31:25;;;;;;;0.50;0.10;;;;;;;;;;6207705;23;20438;-77
2022/11/21 17:33:56;;;;;;;0.50;0.10;;;7.80;1.00;;;;;;6196048;23;20536;-78
2022/11/21 17:36:26;;;;;;;0.50;0.10;;;7.80;4.20;;;;;;6201267;23;20471;-76
2022/11/21 17:38:55;;;;;;;0.60;0.30;;;7.80;1.00;;;;;;6210777;23;20408;-76
2022/11/21 17:41:24;;;;;;;0.50;0.10;;;7.80;2.80;;;;;;6210401;23;20483;-76
2022/11/21 17:43:54;;;;;;;0.50;0.10;;;7.90;2.10;;;;;;6209803;23;20408;-75
2022/11/21 17:46:24;;;;;;;0.50;0.10;;;7.90;1.00;;;;;;6211190;23;20407;-76
2022/11/21 17:48:54;;;;;;;0.60;0.20;;;7.90;1.00;;;;;;6211991;23;20365;-75
2022/11/21 17:51:28;;;;;;;1.07;0.97;;;7.90;1.00;;;;;;6211169;23;20392;-76
2022/11/21 17:53:59;;;;;;;0.50;0.20;;;7.80;1.00;;;;;;6210870;23;20460;-74
2022/11/21 17:56:29;;;;;;;0.50;0.10;;;7.80;1.20;;;;;;6211620;23;20492;-78
2022/11/21 17:58:57;;;;;;;0.50;0.20;;;7.70;1.00;;;;;;6206310;23;20421;-79
2022/11/21 18:01:26;;;;;;;0.50;0.10;;;7.70;5.20;;;;;;6200233;23;20396;-78
2022/11/21 18:03:56;;;;;;;0.50;0.10;;;7.70;5.90;;;;;;6196922;23;20415;-77
2022/11/21 18:06:24;;;;;;;0.50;0.20;;;7.70;5.90;;;;;;6196671;23;20411;-77
2022/11/21 18:08:52;;;;;;;0.50;0.30;;;7.70;1.20;;;;;;6198666;23;20420;-77